Time;durP1;ratioP1;P1;durP2;ratioP2;P2;SDS_P1;SDS_P2;PMS_P1;PMS_P2;Temp;Humidity;BMP_temperature;BMP_pressure;BME280_temperature;BME280_humidity;BME280_pressure;Samples;Min_cycle;Max_cycle;Signal;HPM_P1;HPM_P2
2022/01/22 00:02:17;;;;;;;12.82;7.05;;;;;;;-0.67;70.61;99714.19;1798468;80;21184;-63
2022/01/22 00:05:22;;;;;;;13.18;7.33;;;;;;;-0.64;70.54;99729.20;1798503;80;21269;-62
2022/01/22 00:08:29;;;;;;;12.73;6.55;;;;;;;-0.62;70.56;99726.75;1798573;80;21786;-62
2022/01/22 00:11:39;;;;;;;10.50;7.45;;;;;;;-0.60;70.52;99723.45;1762125;80;21741;-62
2022/01/22 00:14:44;;;;;;;13.32;6.85;;;;;;;-0.58;70.53;99718.83;1762348;81;21795;-61
2022/01/22 00:17:51;;;;;;;11.68;6.28;;;;;;;-0.56;70.44;99721.39;1762375;81;21340;-62
2022/01/22 00:20:56;;;;;;;12.23;7.47;;;;;;;-0.56;70.46;99719.56;1762385;81;21193;-62
2022/01/22 00:24:03;;;;;;;11.68;7.47;;;;;;;-0.57;70.43;99722.38;1762398;81;22002;-61
2022/01/22 00:27:08;;;;;;;10.40;6.40;;;;;;;-0.59;70.46;99718.47;1762312;81;21308;-62
2022/01/22 00:30:18;;;;;;;12.07;6.15;;;;;;;-0.60;70.48;99713.19;1762256;81;21523;-61
2022/01/22 00:33:23;;;;;;;11.63;6.42;;;;;;;-0.60;70.49;99714.53;1762253;81;21363;-63
2022/01/22 00:36:29;;;;;;;11.63;6.78;;;;;;;-0.59;70.49;99711.75;1762326;81;21201;-62
2022/01/22 00:39:37;;;;;;;12.50;6.65;;;;;;;-0.61;70.47;99707.45;1762286;81;21422;-61
2022/01/22 00:42:42;;;;;;;10.55;6.62;;;;;;;-0.63;70.51;99708.92;1793626;80;21331;-64
2022/01/22 00:45:48;;;;;;;11.38;6.53;;;;;;;-0.65;70.51;99701.98;1725511;83;21249;-63
2022/01/22 00:48:55;;;;;;;9.23;6.20;;;;;;;-0.66;70.60;99702.45;1734176;83;21379;-61
2022/01/22 00:52:01;;;;;;;11.08;6.58;;;;;;;-0.67;70.58;99699.89;1793598;80;21351;-61
2022/01/22 00:55:09;;;;;;;9.18;6.50;;;;;;;-0.70;70.56;99704.16;1725687;82;21233;-62
2022/01/22 00:58:14;;;;;;;10.63;6.03;;;;;;;-0.76;70.64;99707.34;1726176;83;21215;-62
2022/01/22 01:01:22;;;;;;;11.57;6.60;;;;;;;-0.82;70.70;99703.77;1773462;80;21426;-61
2022/01/22 01:04:28;;;;;;;12.50;6.60;;;;;;;-0.87;70.69;99708.69;1776059;80;21387;-61
2022/01/22 01:07:35;;;;;;;9.58;6.72;;;;;;;-0.90;70.76;99703.52;1772168;80;21379;-62
2022/01/22 01:10:42;;;;;;;11.45;6.70;;;;;;;-0.95;70.76;99705.74;1803023;77;21212;-61
2022/01/22 01:13:55;;;;;;;11.90;6.78;;;;;;;-0.97;70.85;99699.62;1757272;81;21908;-61
2022/01/22 01:33:49;;;;;;;9.20;6.20;;;;;;;-0.80;71.22;99701.83;1766515;81;21367;-62
2022/01/22 01:36:51;;;;;;;11.03;7.10;;;;;;;-0.81;71.21;99702.82;1760555;81;21846;-62
2022/01/22 01:40:02;;;;;;;10.15;6.65;;;;;;;-0.84;71.21;99714.64;1756969;81;21371;-62
2022/01/22 01:43:17;;;;;;;10.35;5.90;;;;;;;-0.84;71.25;99720.02;1738571;81;21393;-62
2022/01/22 01:46:17;;;;;;;8.93;6.20;;;;;;;-0.84;71.23;99715.16;1734362;82;21358;-62
2022/01/22 01:49:22;;;;;;;9.55;6.12;;;;;;;-0.83;71.23;99712.82;1736275;82;21363;-62
2022/01/22 01:52:44;;;;;;;10.98;6.40;;;;;;;-0.81;71.29;99717.59;1760807;81;21376;-62
2022/01/22 01:58:55;;;;;;;10.58;6.55;;;;;;;-0.73;71.20;99725.91;1730678;83;21409;-62
2022/01/22 02:02:03;;;;;;;13.50;7.05;;;;;;;-0.71;71.06;99723.45;1730593;83;21204;-62
2022/01/22 02:05:10;;;;;;;8.48;6.20;;;;;;;-0.71;71.03;99720.77;1730453;83;21216;-62
2022/01/22 02:08:19;;;;;;;11.33;7.30;;;;;;;-0.68;70.99;99727.75;1730630;83;21267;-62
2022/01/22 02:11:29;;;;;;;13.95;6.65;;;;;;;-0.67;70.90;99722.25;1731065;80;21302;-61
2022/01/22 02:24:39;;;;;;;9.68;6.40;;;;;;;-0.64;70.74;99714.42;1723481;83;21406;-62
2022/01/22 02:27:46;;;;;;;13.60;7.70;;;;;;;-0.66;70.64;99716.36;1723465;83;21335;-62
2022/01/22 02:31:04;;;;;;;9.95;6.53;;;;;;;-0.67;70.63;99718.70;1723455;83;21346;-62
2022/01/22 02:34:19;;;;;;;12.93;6.40;;;;;;;-0.68;70.53;99721.86;1723543;83;21670;-62
2022/01/22 02:37:22;;;;;;;11.18;6.10;;;;;;;-0.69;70.58;99723.33;1723399;83;21818;-63
2022/01/22 02:40:33;;;;;;;9.88;6.55;;;;;;;-0.68;70.58;99722.38;1723463;83;21362;-62
2022/01/22 02:43:37;;;;;;;11.30;6.97;;;;;;;-0.64;70.54;99737.27;1723477;83;21389;-62
2022/01/22 02:46:48;;;;;;;10.38;6.15;;;;;;;-0.62;70.48;99729.43;1723446;83;21264;-62
2022/01/22 02:49:53;;;;;;;10.30;6.42;;;;;;;-0.58;70.46;99735.42;1723457;83;21367;-61
2022/01/22 02:52:58;;;;;;;8.75;6.10;;;;;;;-0.55;70.43;99727.12;1723423;83;21357;-62
2022/01/22 02:56:05;;;;;;;9.53;6.42;;;;;;;-0.51;70.32;99729.94;1723414;83;21331;-62
2022/01/22 02:59:21;;;;;;;11.70;6.55;;;;;;;-0.49;70.20;99738.23;1723332;83;21288;-62
2022/01/22 03:02:23;;;;;;;10.18;6.53;;;;;;;-0.51;70.14;99733.46;1723410;83;21373;-62
2022/01/22 03:05:29;;;;;;;9.58;6.80;;;;;;;-0.45;70.12;99738.86;1723486;83;21749;-61
2022/01/22 03:08:40;;;;;;;10.90;7.35;;;;;;;-0.44;70.11;99741.42;1723523;83;21840;-63
2022/01/22 03:12:12;;;;;;;10.03;6.42;;;;;;;-0.38;69.98;99742.78;1723379;83;21370;-62
2022/01/22 03:18:20;;;;;;;11.05;7.20;;;;;;;-0.33;69.82;99753.52;1730995;83;21208;-61
2022/01/22 03:27:50;;;;;;;11.28;6.45;;;;;;;-0.29;69.51;99754.12;1731018;83;21557;-61
2022/01/22 03:30:56;;;;;;;10.78;6.70;;;;;;;-0.31;69.45;99754.25;1731094;83;21208;-62
2022/01/22 03:34:03;;;;;;;13.10;6.28;;;;;;;-0.29;69.42;99754.12;1730952;83;21203;-61
2022/01/22 03:37:09;;;;;;;10.48;6.72;;;;;;;-0.26;69.42;99760.13;1730887;83;21212;-62
2022/01/22 03:40:15;;;;;;;11.10;6.75;;;;;;;-0.24;69.31;99760.00;1714215;82;21235;-61
2022/01/22 03:43:20;;;;;;;13.68;7.33;;;;;;;-0.23;69.27;99756.31;1731023;83;21211;-61
2022/01/22 03:46:30;;;;;;;12.30;6.40;;;;;;;-0.22;69.23;99752.64;1731067;83;21207;-62
2022/01/22 03:49:37;;;;;;;13.25;7.12;;;;;;;-0.19;69.21;99765.87;1730927;83;21618;-61
2022/01/22 03:52:45;;;;;;;13.53;7.25;;;;;;;-0.19;69.15;99765.36;1730973;83;21299;-62
2022/01/22 03:56:05;;;;;;;14.10;7.75;;;;;;;-0.16;69.19;99772.34;1731119;83;21207;-62
2022/01/22 03:59:30;;;;;;;16.77;8.58;;;;;;;-0.15;69.01;99767.31;1735199;81;21289;-63
2022/01/22 04:03:26;;;;;;;16.77;8.25;;;;;;;-0.14;69.01;99764.98;1734344;83;21299;-61
2022/01/22 04:09:34;;;;;;;17.80;7.97;;;;;;;-0.16;68.90;99771.00;1761196;81;21375;-62
2022/01/22 04:12:47;;;;;;;19.98;9.75;;;;;;;-0.18;68.86;99779.67;1799101;80;21398;-62
2022/01/22 04:15:48;;;;;;;17.50;8.38;;;;;;;-0.13;68.98;99784.19;1797386;79;21354;-62
2022/01/22 04:25:47;;;;;;;17.42;9.15;;;;;;;-0.06;68.93;99781.36;1799373;79;21335;-62
2022/01/22 04:28:51;;;;;;;16.75;8.40;;;;;;;-0.02;68.93;99784.17;1799146;79;21227;-62
2022/01/22 04:31:56;;;;;;;15.30;8.23;;;;;;;0.02;68.80;99787.48;1800009;79;21177;-62
2022/01/22 04:35:03;;;;;;;13.75;7.55;;;;;;;0.03;68.63;99788.70;1799186;79;21507;-62
2022/01/22 04:38:08;;;;;;;18.87;9.60;;;;;;;0.00;68.45;99798.37;1798802;79;21252;-62
2022/01/22 04:41:17;;;;;;;14.28;8.53;;;;;;;-0.04;68.37;99798.23;1799283;79;21248;-61
2022/01/22 04:44:30;;;;;;;11.90;7.87;;;;;;;-0.09;68.48;99789.67;1799053;79;21351;-62
2022/01/22 04:57:48;;;;;;;13.83;7.78;;;;;;;-0.09;68.41;99793.70;1799176;79;21212;-62
2022/01/22 05:00:54;;;;;;;14.35;7.75;;;;;;;-0.08;68.43;99806.20;1799144;79;21335;-63
2022/01/22 05:04:10;;;;;;;11.33;7.50;;;;;;;-0.10;68.36;99808.15;1799011;79;21359;-62
2022/01/22 05:07:34;;;;;;;15.38;7.80;;;;;;;-0.10;68.42;99819.77;1799073;79;21777;-62
2022/01/22 05:10:44;;;;;;;12.07;7.70;;;;;;;-0.11;68.38;99819.86;1795374;79;21825;-62
2022/01/22 05:13:50;;;;;;;11.93;7.60;;;;;;;-0.11;68.40;99819.38;1798887;78;21204;-63
2022/01/22 05:16:58;;;;;;;11.03;6.53;;;;;;;-0.09;68.44;99821.47;1752082;78;21403;-62
2022/01/22 05:20:16;;;;;;;13.70;7.00;;;;;;;-0.07;68.34;99826.25;1751450;81;21375;-64
2022/01/22 05:23:20;;;;;;;12.40;6.67;;;;;;;-0.06;68.33;99817.19;1750704;82;21356;-62
2022/01/22 05:30:09;;;;;;;10.45;6.85;;;;;;;-0.05;68.11;99816.70;1750431;81;21233;-62
2022/01/22 05:36:54;;;;;;;11.57;6.90;;;;;;;-0.06;68.07;99819.01;1751858;81;21271;-63
2022/01/22 05:40:00;;;;;;;11.93;7.47;;;;;;;-0.10;68.13;99822.94;1787774;80;21336;-62
2022/01/22 05:43:06;;;;;;;9.68;6.87;;;;;;;-0.12;68.21;99826.23;1793209;80;21236;-61
2022/01/22 05:46:11;;;;;;;12.95;8.95;;;;;;;-0.09;68.19;99827.33;1792519;79;21232;-61
2022/01/22 05:49:19;;;;;;;12.50;7.83;;;;;;;-0.01;68.23;99832.47;1792570;80;21339;-62
2022/01/22 05:52:36;;;;;;;11.75;7.08;;;;;;;0.02;67.98;99830.02;1792815;80;21760;-62
2022/01/22 05:59:35;;;;;;;13.08;7.85;;;;;;;0.05;67.98;99832.45;1792763;80;21205;-62
2022/01/22 06:02:18;;;;;;;12.60;7.30;;;;;;;0.14;67.57;99835.77;1793046;80;21229;-63
2022/01/22 06:05:24;;;;;;;11.35;7.33;;;;;;;0.14;67.46;99838.46;1793238;80;21222;-62
2022/01/22 06:08:33;;;;;;;12.88;8.30;;;;;;;0.18;67.40;99839.05;1793275;80;21407;-62
2022/01/22 06:11:58;;;;;;;12.37;7.75;;;;;;;0.16;67.27;99843.20;1793085;80;21367;-62
2022/01/22 06:15:04;;;;;;;14.33;8.53;;;;;;;0.21;67.33;99846.90;1793677;80;21398;-63
2022/01/22 06:18:29;;;;;;;12.85;8.20;;;;;;;0.27;67.28;99841.84;1793659;80;21399;-62
2022/01/22 06:21:34;;;;;;;18.42;9.38;;;;;;;0.33;67.15;99849.45;1793319;80;21456;-62
2022/01/22 06:24:40;;;;;;;15.65;9.23;;;;;;;0.38;67.01;99847.73;1793409;80;21361;-63
2022/01/22 06:27:47;;;;;;;12.85;7.65;;;;;;;0.38;66.80;99841.00;1791739;79;21220;-63
2022/01/22 06:30:54;;;;;;;10.58;7.17;;;;;;;0.41;66.69;99845.64;1793102;80;21272;-63
2022/01/22 06:34:01;;;;;;;13.50;7.10;;;;;;;0.43;66.65;99853.08;1793539;80;21209;-63
2022/01/22 06:37:06;;;;;;;15.38;7.80;;;;;;;0.49;66.57;99857.95;1793634;80;21181;-62
2022/01/22 06:43:35;;;;;;;16.73;8.28;;;;;;;0.54;66.19;99863.83;1780146;80;21212;-63
2022/01/22 06:46:49;;;;;;;14.53;8.58;;;;;;;0.52;66.10;99852.83;1793817;80;21335;-62
2022/01/22 06:50:00;;;;;;;14.53;8.68;;;;;;;0.57;66.07;99861.39;1787349;80;21201;-62
2022/01/22 06:53:22;;;;;;;12.13;8.20;;;;;;;0.63;66.05;99871.17;1793163;80;21911;-62
2022/01/22 06:56:30;;;;;;;14.65;8.08;;;;;;;0.69;65.90;99869.80;1793610;80;21197;-62
2022/01/22 06:59:37;;;;;;;17.77;9.20;;;;;;;0.75;65.70;99878.23;1785942;80;21802;-63
2022/01/22 07:02:46;;;;;;;13.35;8.15;;;;;;;0.76;65.57;99882.62;1792652;80;21391;-63
2022/01/22 07:05:53;;;;;;;16.45;9.25;;;;;;;0.80;65.51;99884.58;1793005;80;21335;-63
2022/01/22 07:08:58;;;;;;;13.40;8.28;;;;;;;0.82;65.30;99880.80;1794783;79;21231;-63
2022/01/22 07:12:03;;;;;;;12.80;8.20;;;;;;;0.83;65.06;99885.67;1760602;81;21371;-63
2022/01/22 07:15:11;;;;;;;11.83;7.80;;;;;;;0.81;65.00;99885.80;1731117;83;21358;-62
2022/01/22 07:18:19;;;;;;;14.25;8.65;;;;;;;0.84;64.96;99896.31;1781734;80;21201;-62
2022/01/22 07:21:27;;;;;;;14.68;7.97;;;;;;;0.87;64.85;99892.02;1798387;79;21169;-62
2022/01/22 07:24:39;;;;;;;15.05;8.85;;;;;;;0.92;64.90;99889.80;1799189;79;21248;-63
2022/01/22 07:27:49;;;;;;;12.93;8.38;;;;;;;0.94;64.62;99886.98;1799057;79;21359;-63
2022/01/22 07:30:55;;;;;;;14.13;8.70;;;;;;;0.90;64.54;99893.14;1799222;79;21239;-63
2022/01/22 07:34:02;;;;;;;12.70;7.78;;;;;;;0.90;64.59;99900.36;1799272;79;21232;-62
2022/01/22 07:37:11;;;;;;;13.98;8.88;;;;;;;0.92;64.64;99903.79;1799287;79;21252;-62
2022/01/22 07:40:18;;;;;;;19.10;9.48;;;;;;;0.94;64.46;99905.36;1800166;79;21381;-63
2022/01/22 07:43:31;;;;;;;13.78;8.53;;;;;;;0.94;64.42;99909.41;1811227;78;21710;-62
2022/01/22 07:46:51;;;;;;;15.35;9.20;;;;;;;1.02;64.43;99916.84;1732936;81;21232;-62
2022/01/22 07:49:56;;;;;;;13.68;9.38;;;;;;;1.09;64.25;99919.41;1820717;78;21324;-63
2022/01/22 07:53:03;;;;;;;12.70;8.23;;;;;;;1.20;64.30;99922.06;1819758;79;21181;-62
2022/01/22 07:56:08;;;;;;;14.85;8.43;;;;;;;1.31;64.23;99925.58;1816485;78;21847;-63
2022/01/22 07:59:13;;;;;;;14.90;8.48;;;;;;;1.47;63.99;99935.41;1743342;81;21584;-63
2022/01/22 08:02:20;;;;;;;14.47;8.40;;;;;;;1.58;63.69;99935.00;1758571;81;21459;-62
2022/01/22 08:05:44;;;;;;;16.87;9.63;;;;;;;1.72;63.47;99925.23;1756571;81;21213;-62
2022/01/22 08:09:09;;;;;;;15.85;9.83;;;;;;;1.85;63.11;99932.65;1728523;82;21317;-62
2022/01/22 08:12:18;;;;;;;14.53;9.25;;;;;;;1.94;62.84;99939.45;1726910;82;21240;-62
2022/01/22 08:15:28;;;;;;;16.05;9.38;;;;;;;1.90;62.39;99943.91;1735840;82;22216;-63
2022/01/22 08:18:33;;;;;;;19.37;9.65;;;;;;;1.93;62.44;99950.39;1735535;82;21283;-63
2022/01/22 08:21:38;;;;;;;15.25;9.08;;;;;;;2.01;62.35;99958.20;1760953;81;21610;-63
2022/01/22 08:25:02;;;;;;;14.60;9.23;;;;;;;2.05;62.00;99958.28;1759461;81;21422;-62
2022/01/22 08:31:47;;;;;;;15.60;9.08;;;;;;;2.09;61.95;99953.48;1760978;81;21722;-63
2022/01/22 08:38:13;;;;;;;13.35;7.92;;;;;;;2.14;61.86;99950.72;1759971;81;21213;-63
2022/01/22 08:41:22;;;;;;;15.43;8.43;;;;;;;2.21;61.68;99951.91;1736274;81;21256;-62
2022/01/22 08:44:28;;;;;;;14.13;8.45;;;;;;;2.21;61.49;99946.52;1736839;81;21229;-61
2022/01/22 08:47:35;;;;;;;12.50;8.05;;;;;;;2.16;61.30;99943.84;1798204;79;21669;-63
2022/01/22 08:50:42;;;;;;;15.90;9.80;;;;;;;2.15;61.57;99956.50;1803997;79;21358;-63
2022/01/22 08:53:51;;;;;;;14.45;8.78;;;;;;;2.25;61.50;99952.51;1781496;79;21725;-62
2022/01/22 08:57:04;;;;;;;14.50;9.28;;;;;;;2.38;61.39;99959.91;1800508;79;21229;-62
2022/01/22 09:00:25;;;;;;;12.33;7.85;;;;;;;2.50;61.32;99954.77;1798726;79;21228;-62
2022/01/22 09:03:35;;;;;;;15.10;9.53;;;;;;;2.71;61.07;99962.33;1799538;79;21548;-63
2022/01/22 09:07:03;;;;;;;13.28;8.73;;;;;;;2.77;60.52;99952.31;1803402;79;21848;-63
2022/01/22 09:10:20;;;;;;;16.02;9.60;;;;;;;2.88;60.46;99957.61;1785670;79;21844;-61
2022/01/22 09:13:44;;;;;;;22.65;15.08;;;;;;;2.97;60.10;99969.80;1800737;79;21185;-61
2022/01/22 09:16:53;;;;;;;20.00;11.35;;;;;;;2.98;59.97;99965.26;1796976;79;21222;-62
2022/01/22 09:20:03;;;;;;;18.15;11.33;;;;;;;2.89;59.81;99966.06;1794412;79;21347;-61
2022/01/22 09:23:09;;;;;;;17.90;10.78;;;;;;;2.77;60.05;99965.83;1803352;79;21394;-62
2022/01/22 09:26:15;;;;;;;15.48;10.03;;;;;;;2.68;60.30;99967.48;1801043;79;21591;-62
2022/01/22 09:29:23;;;;;;;17.42;10.25;;;;;;;2.67;60.57;99968.97;1803357;79;21386;-62
2022/01/22 09:32:29;;;;;;;11.53;8.23;;;;;;;2.70;60.59;99976.80;1802575;79;21178;-62
2022/01/22 09:35:52;;;;;;;15.93;9.23;;;;;;;2.81;60.80;99976.70;1802608;79;21311;-62
2022/01/22 09:39:03;;;;;;;24.70;11.78;;;;;;;3.03;60.75;99973.78;1798359;79;21289;-63
2022/01/22 09:42:15;;;;;;;16.93;11.25;;;;;;;3.24;60.51;99969.14;1800923;79;21375;-62
2022/01/22 09:45:26;;;;;;;18.55;10.95;;;;;;;3.33;60.01;99973.70;1802820;78;21631;-62
2022/01/22 09:48:35;;;;;;;19.42;10.88;;;;;;;3.33;59.85;99979.11;1793337;80;21370;-62
2022/01/22 09:51:45;;;;;;;18.10;11.22;;;;;;;3.31;59.92;99978.42;1796657;79;21414;-62
2022/01/22 09:54:59;;;;;;;14.15;9.95;;;;;;;3.37;59.99;99982.40;1798596;79;21208;-62
2022/01/22 09:58:21;;;;;;;17.73;10.93;;;;;;;3.39;59.78;99979.93;1798970;79;21217;-63
2022/01/22 10:01:48;;;;;;;18.07;10.65;;;;;;;3.33;59.83;99980.47;1798210;79;22522;-62
2022/01/22 10:04:55;;;;;;;25.92;15.23;;;;;;;3.37;59.94;99982.40;1799274;79;21302;-62
2022/01/22 10:08:36;;;;;;;20.77;12.03;;;;;;;3.41;59.83;99986.03;1720071;80;21309;-63
2022/01/22 10:11:48;;;;;;;19.70;10.82;;;;;;;3.45;59.75;99983.42;1791428;80;21193;-62
2022/01/22 10:15:24;;;;;;;21.00;11.93;;;;;;;3.62;59.69;99978.66;1795777;80;21748;-62
2022/01/22 10:18:33;;;;;;;21.07;12.30;;;;;;;3.83;59.47;99992.05;1797985;79;21740;-63
2022/01/22 10:21:39;;;;;;;16.62;10.45;;;;;;;3.89;58.93;99989.62;1796023;79;21295;-61
2022/01/22 10:24:50;;;;;;;15.60;10.03;;;;;;;3.83;58.76;99990.20;1805538;78;21197;-62
2022/01/22 10:28:09;;;;;;;20.50;10.93;;;;;;;3.84;58.78;99991.04;1822620;77;21268;-63
2022/01/22 10:31:24;;;;;;;16.85;10.30;;;;;;;3.95;58.76;99994.95;1730035;82;21673;-62
2022/01/22 10:34:38;;;;;;;14.28;9.35;;;;;;;4.03;58.55;99991.89;1737508;81;21810;-62
2022/01/22 10:38:10;;;;;;;15.58;10.28;;;;;;;4.12;58.22;99995.08;1728307;82;21799;-62
2022/01/22 10:41:15;;;;;;;16.73;11.25;;;;;;;4.11;57.94;99987.10;1829031;78;21260;-63
2022/01/22 10:44:32;;;;;;;16.60;9.95;;;;;;;4.06;57.70;99990.25;1756842;81;21302;-63
2022/01/22 10:47:29;;;;;;;16.30;10.82;;;;;;;4.01;57.86;99991.70;1738421;82;21230;-63
2022/01/22 10:50:35;;;;;;;20.00;11.22;;;;;;;4.03;57.94;99993.25;1729091;83;21225;-64
2022/01/22 10:53:48;;;;;;;17.37;11.25;;;;;;;4.06;57.93;99990.77;1797790;79;21178;-64
2022/01/22 10:56:53;;;;;;;;;;;;;;;3.98;57.91;99981.98;1802256;78;21151;-64
2022/01/22 11:00:03;;;;;;;16.05;10.50;;;;;;;3.91;58.08;99988.13;1802800;78;20198;-64
2022/01/22 11:03:28;;;;;;;17.90;10.98;;;;;;;3.80;58.11;99992.34;1728855;81;21178;-64
2022/01/22 11:06:34;;;;;;;16.05;10.70;;;;;;;3.77;58.48;99992.14;1724919;82;21268;-64
2022/01/22 11:09:39;;;;;;;18.55;11.95;;;;;;;3.83;58.58;99995.63;1735725;82;21349;-64
2022/01/22 11:12:47;;;;;;;17.70;10.95;;;;;;;3.90;58.58;100000.80;1733206;83;21734;-64
2022/01/22 11:15:52;;;;;;;22.75;14.05;;;;;;;3.96;58.46;100010.22;1760117;81;21351;-65
2022/01/22 11:19:02;;;;;;;22.45;12.63;;;;;;;4.09;58.60;100000.79;1780574;79;21228;-65
2022/01/22 11:22:21;;;;;;;17.48;11.05;;;;;;;4.33;58.39;100003.03;1797019;79;21189;-66
2022/01/22 11:25:28;;;;;;;17.42;10.90;;;;;;;4.57;58.07;100011.53;1799322;79;21192;-66
2022/01/22 11:28:34;;;;;;;25.43;15.95;;;;;;;4.82;57.68;100008.16;1790995;79;21304;-66
2022/01/22 11:31:45;;;;;;;26.42;14.40;;;;;;;4.96;57.13;100014.97;1794240;79;21339;-64
2022/01/22 11:34:51;;;;;;;29.23;15.55;;;;;;;5.04;56.66;100016.44;1803851;79;21573;-65
2022/01/22 11:38:08;;;;;;;24.52;13.75;;;;;;;4.97;56.36;100019.38;1801072;79;21310;-65
2022/01/22 11:41:23;;;;;;;29.80;15.95;;;;;;;4.76;56.26;100017.42;1793414;79;21421;-66
2022/01/22 11:45:02;;;;;;;25.60;16.55;;;;;;;4.47;56.79;100017.50;1805605;78;21272;-67
2022/01/22 11:48:18;;;;;;;20.55;13.40;;;;;;;4.28;57.37;100022.95;1803536;79;21542;-66
2022/01/22 11:51:33;;;;;;;25.72;13.93;;;;;;;4.10;57.91;100028.25;1800902;78;21868;-67
2022/01/22 11:55:00;;;;;;;32.00;16.48;;;;;;;3.97;58.79;100027.67;1797193;79;21279;-66
2022/01/22 11:58:11;;;;;;;31.05;16.75;;;;;;;3.93;59.28;100026.75;1797921;79;21690;-66
2022/01/22 12:01:17;;;;;;;24.67;14.73;;;;;;;3.97;59.59;100029.03;1797860;80;21998;-65
2022/01/22 12:04:22;;;;;;;25.15;14.98;;;;;;;3.93;59.59;100037.06;1798442;79;21397;-67
2022/01/22 12:07:35;;;;;;;24.80;14.28;;;;;;;3.84;60.05;100036.57;1776459;80;21315;-67
2022/01/22 12:14:28;;;;;;;18.90;12.98;;;;;;;3.77;60.67;100042.22;1797877;79;21312;-65
2022/01/22 12:18:01;;;;;;;20.85;13.05;;;;;;;3.77;60.79;100047.63;1797195;80;21744;-70
2022/01/22 12:24:15;;;;;;;24.00;14.00;;;;;;;3.60;60.86;100052.35;1790730;79;21759;-67
2022/01/22 12:27:26;;;;;;;25.50;16.42;;;;;;;3.47;61.09;100061.25;1791844;80;21202;-66
2022/01/22 12:30:54;;;;;;;26.02;16.82;;;;;;;3.45;61.59;100064.59;1789679;80;21588;-66
2022/01/22 12:34:02;;;;;;;17.85;12.37;;;;;;;3.54;61.92;100062.39;1792921;80;21262;-66
2022/01/22 12:37:25;;;;;;;20.65;13.28;;;;;;;3.59;62.11;100071.44;1792194;80;21195;-65
2022/01/22 12:40:36;;;;;;;17.65;12.15;;;;;;;3.58;62.26;100073.31;1792247;80;21226;-65
2022/01/22 12:43:44;;;;;;;18.60;12.75;;;;;;;3.45;62.44;100079.47;1791928;80;21274;-66
2022/01/22 12:46:52;;;;;;;19.95;12.88;;;;;;;3.33;62.80;100079.20;1791027;80;21218;-65
2022/01/22 12:50:15;;;;;;;19.12;12.65;;;;;;;3.26;63.27;100086.16;1797272;78;22150;-65
2022/01/22 12:53:22;;;;;;;17.60;11.35;;;;;;;3.32;63.69;100086.97;1796842;78;21319;-66
2022/01/22 12:59:42;;;;;;;18.73;12.85;;;;;;;3.20;63.93;100093.48;1793143;79;21343;-65
2022/01/22 13:02:57;;;;;;;20.52;12.95;;;;;;;3.09;64.29;100093.58;1792861;80;21569;-65
2022/01/22 13:06:03;;;;;;;21.20;13.43;;;;;;;2.99;64.59;100092.66;1793112;80;21678;-66
2022/01/22 13:09:25;;;;;;;19.07;13.30;;;;;;;2.91;64.81;100097.89;1793231;80;21927;-66
2022/01/22 13:12:34;;;;;;;21.85;13.03;;;;;;;2.77;65.12;100099.59;1792620;80;21173;-65
2022/01/22 13:15:40;;;;;;;21.23;13.18;;;;;;;2.67;65.48;100103.59;1792705;78;21182;-66
2022/01/22 13:18:57;;;;;;;20.55;13.10;;;;;;;2.59;65.75;100115.55;1792102;80;21728;-66
2022/01/22 13:22:05;;;;;;;19.12;11.80;;;;;;;2.52;66.06;100121.10;1791704;80;21194;-66
2022/01/22 13:25:19;;;;;;;17.60;11.78;;;;;;;2.50;66.54;100119.53;1768989;79;21760;-66
2022/01/22 13:28:24;;;;;;;18.42;12.23;;;;;;;2.51;66.83;100121.23;1758760;80;21749;-66
2022/01/22 13:31:30;;;;;;;18.12;12.47;;;;;;;2.49;67.14;100128.64;1794428;80;21299;-66
2022/01/22 13:34:47;;;;;;;20.75;13.13;;;;;;;2.48;67.37;100130.48;1799209;79;21768;-67
2022/01/22 13:48:40;;;;;;;33.58;22.32;;;;;;;2.45;68.45;100138.84;1797441;80;21236;-65
2022/01/22 13:51:48;;;;;;;31.93;22.87;;;;;;;2.45;68.62;100140.67;1798226;80;21289;-66
2022/01/22 13:54:56;;;;;;;27.22;19.62;;;;;;;2.46;68.72;100148.65;1798419;80;21200;-65
2022/01/22 13:58:02;;;;;;;29.27;19.73;;;;;;;2.44;68.84;100152.48;1798340;80;21330;-65
2022/01/22 14:01:44;;;;;;;24.82;16.17;;;;;;;2.39;68.98;100149.30;1791308;80;21189;-66
2022/01/22 14:05:04;;;;;;;19.90;13.58;;;;;;;2.34;68.95;100149.70;1798337;80;21412;-66
2022/01/22 14:08:17;;;;;;;37.83;22.73;;;;;;;2.30;68.96;100158.20;1798700;79;21228;-66
2022/01/22 14:11:25;;;;;;;27.32;17.52;;;;;;;2.25;68.91;100167.17;1798378;80;21219;-65
2022/01/22 14:14:32;;;;;;;31.42;19.45;;;;;;;2.18;69.04;100175.41;1798501;80;21705;-66
2022/01/22 14:18:14;;;;;;;26.30;16.90;;;;;;;2.17;69.20;100177.75;1797849;80;21323;-66
2022/01/22 14:21:27;;;;;;;30.35;16.77;;;;;;;2.15;69.25;100175.19;1797359;80;21300;-65
2022/01/22 14:24:37;;;;;;;23.40;16.27;;;;;;;2.14;69.16;100180.71;1797642;79;21204;-66
2022/01/22 14:27:44;;;;;;;23.05;14.60;;;;;;;2.05;69.26;100180.10;1797743;80;21223;-66
2022/01/22 14:30:53;;;;;;;28.90;18.52;;;;;;;1.98;69.32;100184.31;1797748;79;21184;-65
2022/01/22 14:33:59;;;;;;;26.60;17.50;;;;;;;1.93;69.37;100186.53;1798270;79;21370;-64
2022/01/22 14:37:08;;;;;;;35.35;19.57;;;;;;;1.87;69.48;100182.47;1799623;79;21254;-66
2022/01/22 14:47:04;;;;;;;30.35;19.82;;;;;;;1.77;69.83;100184.72;1799147;79;21292;-66
2022/01/22 14:50:17;;;;;;;28.70;19.07;;;;;;;1.73;69.97;100190.02;1799248;79;21354;-66
2022/01/22 14:53:26;;;;;;;36.13;23.53;;;;;;;1.72;70.10;100196.36;1799253;79;21302;-65
2022/01/22 14:56:31;;;;;;;41.00;25.45;;;;;;;1.70;70.13;100203.75;1799934;79;21184;-66
2022/01/22 14:59:40;;;;;;;37.80;24.40;;;;;;;1.69;70.20;100207.41;1799113;79;21286;-65
2022/01/22 15:02:47;;;;;;;39.23;26.77;;;;;;;1.67;70.21;100202.63;1799577;79;21180;-65
2022/01/22 15:05:55;;;;;;;30.48;20.40;;;;;;;1.65;70.26;100210.00;1799898;79;21314;-66
2022/01/22 15:09:04;;;;;;;29.72;18.07;;;;;;;1.61;70.32;100217.48;1799716;79;21323;-65
2022/01/22 15:12:12;;;;;;;31.40;20.02;;;;;;;1.59;70.42;100218.09;1799127;79;21370;-65
2022/01/22 15:15:22;;;;;;;25.70;16.50;;;;;;;1.55;70.53;100222.86;1799453;79;21361;-66
2022/01/22 15:21:53;;;;;;;28.02;16.37;;;;;;;1.54;70.72;100218.45;1793710;78;21333;-64
2022/01/22 15:24:59;;;;;;;24.55;16.55;;;;;;;1.52;70.73;100221.76;1793630;79;21221;-64
2022/01/22 15:28:07;;;;;;;26.42;17.12;;;;;;;1.49;70.84;100231.45;1754355;78;21239;-66
2022/01/22 15:37:47;;;;;;;29.45;19.30;;;;;;;1.45;70.88;100235.39;1735679;82;20283;-64
2022/01/22 15:40:53;;;;;;;36.93;21.33;;;;;;;1.43;70.90;100245.43;1735204;82;21205;-65
2022/01/22 15:43:58;;;;;;;42.45;24.40;;;;;;;1.44;70.85;100244.95;1735656;82;21443;-64
2022/01/22 15:47:04;;;;;;;35.92;22.17;;;;;;;1.40;70.81;100248.38;1736019;82;21193;-64
2022/01/22 15:50:12;;;;;;;31.95;20.35;;;;;;;1.39;70.91;100246.66;1736190;82;21315;-65
2022/01/22 15:53:21;;;;;;;33.33;21.40;;;;;;;1.40;70.93;100245.67;1735180;82;21328;-64
2022/01/22 15:56:26;;;;;;;39.20;24.57;;;;;;;1.41;70.92;100246.03;1736035;82;21423;-65
2022/01/22 15:59:31;;;;;;;38.60;24.30;;;;;;;1.44;70.86;100263.31;1746961;80;21771;-64
2022/01/22 16:02:36;;;;;;;38.78;24.82;;;;;;;1.44;70.80;100268.70;1766187;80;21709;-65
2022/01/22 16:05:46;;;;;;;41.15;25.15;;;;;;;1.44;70.73;100274.09;1761241;81;21232;-65
2022/01/22 16:08:53;;;;;;;54.05;31.35;;;;;;;1.43;70.72;100271.05;1765731;80;21290;-67
2022/01/22 16:12:01;;;;;;;63.30;36.88;;;;;;;1.42;70.76;100269.34;1770070;80;21293;-64
2022/01/22 16:15:08;;;;;;;71.75;37.95;;;;;;;1.45;70.74;100276.31;1765646;81;21862;-64
2022/01/22 16:18:13;;;;;;;68.00;37.78;;;;;;;1.43;70.72;100277.79;1765831;81;21727;-63
2022/01/22 16:21:20;;;;;;;63.40;38.75;;;;;;;1.44;70.78;100277.31;1765806;81;21348;-64
2022/01/22 16:24:28;;;;;;;51.85;30.97;;;;;;;1.44;70.80;100287.59;1766314;78;21848;-64
2022/01/22 16:27:35;;;;;;;51.08;31.70;;;;;;;1.42;70.78;100282.83;1771730;79;21563;-64
2022/01/22 16:30:40;;;;;;;45.92;29.40;;;;;;;1.42;70.75;100286.88;1797795;79;21173;-64
2022/01/22 16:33:46;;;;;;;49.77;28.20;;;;;;;1.40;70.67;100292.87;1798078;79;21270;-63
2022/01/22 16:36:56;;;;;;;41.83;25.45;;;;;;;1.38;70.66;100305.60;1798510;79;21339;-64
2022/01/22 16:40:00;;;;;;;37.28;24.15;;;;;;;1.38;70.70;100315.52;1798472;80;21216;-65
2022/01/22 16:43:08;;;;;;;35.75;22.32;;;;;;;1.36;70.68;100318.84;1798767;79;21701;-65